createdAt,value
2022-12-03T00:02:26.214Z,102320.88
2022-12-03T00:04:54.463Z,102313.03
2022-12-03T00:07:22.653Z,102314.59
2022-12-03T00:09:50.644Z,102309.34
2022-12-03T00:12:19.971Z,102311.91
2022-12-03T00:14:47.898Z,102312.81
2022-12-03T00:17:15.899Z,102305.66
2022-12-03T00:19:43.874Z,102302.91
2022-12-03T00:22:12.948Z,102308.91
2022-12-03T00:24:41.036Z,102304.72
2022-12-03T00:27:09.242Z,102301.00
2022-12-03T00:29:38.655Z,102301.09
2022-12-03T00:32:06.964Z,102301.03
2022-12-03T00:34:34.899Z,102303.53
2022-12-03T00:37:02.863Z,102301.00
2022-12-03T00:39:30.844Z,102305.38
2022-12-03T00:41:59.642Z,102305.44
2022-12-03T00:44:27.931Z,102298.38
2022-12-03T00:46:57.311Z,102295.56
2022-12-03T00:49:25.328Z,102300.75
2022-12-03T00:51:53.421Z,102305.06
2022-12-03T00:54:24.472Z,102300.78
2022-12-03T00:56:54.876Z,102298.16
2022-12-03T00:59:22.888Z,102292.00
2022-12-03T01:01:50.976Z,102304.22
2022-12-03T01:04:20.458Z,102308.66
2022-12-03T01:06:48.495Z,102298.91
2022-12-03T01:09:16.465Z,102304.22
2022-12-03T01:11:44.462Z,102296.06
2022-12-03T01:14:14.665Z,102295.19
2022-12-03T01:16:43.317Z,102283.44
2022-12-03T01:19:15.713Z,102310.06
2022-12-03T01:21:45.992Z,102309.03
2022-12-03T01:24:14.430Z,102308.09
2022-12-03T01:26:42.400Z,102311.53
2022-12-03T01:29:10.711Z,102314.69
2022-12-03T01:31:56.624Z,102293.16
2022-12-03T01:34:24.713Z,102312.09
2022-12-03T01:36:54.105Z,102306.66
2022-12-03T01:39:22.185Z,102305.66
2022-12-03T01:41:51.591Z,102311.59
2022-12-03T01:44:23.513Z,102319.41
2022-12-03T01:46:52.895Z,102318.66
2022-12-03T01:49:24.224Z,102310.63
2022-12-03T01:51:54.735Z,102312.31
2022-12-03T01:54:28.200Z,102318.63
2022-12-03T01:56:56.608Z,102317.66
2022-12-03T01:59:33.997Z,102318.50
2022-12-03T02:02:12.992Z,102318.50
2022-12-03T02:04:41.037Z,102321.22
2022-12-03T02:07:26.177Z,102321.16
2022-12-03T02:09:55.783Z,102318.53
2022-12-03T02:12:29.707Z,102310.44
2022-12-03T02:14:58.271Z,102315.84
2022-12-03T02:17:26.826Z,102315.81
2022-12-03T02:19:56.007Z,102317.53
2022-12-03T02:22:35.408Z,102314.94
2022-12-03T02:25:24.239Z,102314.09
2022-12-03T02:27:55.111Z,102316.59
2022-12-03T02:30:25.614Z,102304.25
2022-12-03T02:32:54.999Z,102315.69
2022-12-03T02:35:25.142Z,102312.13
2022-12-03T02:37:59.303Z,102305.94
2022-12-03T02:40:32.128Z,102315.34
2022-12-03T02:43:01.274Z,102306.59
2022-12-03T02:45:32.270Z,102314.72
2022-12-03T02:48:03.612Z,102313.84
2022-12-03T02:50:34.963Z,102303.09
2022-12-03T02:53:06.755Z,102309.16
2022-12-03T02:55:37.892Z,102307.38
2022-12-03T02:58:06.586Z,102314.16
2022-12-03T03:00:36.456Z,102323.84
2022-12-03T03:03:06.386Z,102310.56
2022-12-03T03:05:35.227Z,102322.00
2022-12-03T03:08:04.022Z,102327.22
2022-12-03T03:10:36.915Z,102328.06
2022-12-03T03:13:08.619Z,102323.75
2022-12-03T03:15:37.416Z,102319.38
2022-12-03T03:18:06.131Z,102323.81
2022-12-03T03:20:34.170Z,102315.78
2022-12-03T03:23:08.065Z,102319.28
2022-12-03T03:25:38.096Z,102319.28
2022-12-03T03:28:06.940Z,102314.03
2022-12-03T03:30:36.424Z,102298.19
2022-12-03T03:33:04.410Z,102304.16
2022-12-03T03:35:32.644Z,102307.56
2022-12-03T03:38:01.108Z,102313.69
2022-12-03T03:40:29.503Z,102303.16
2022-12-03T03:42:59.242Z,102305.81
2022-12-03T03:45:29.528Z,102305.72
2022-12-03T03:47:59.058Z,102305.66
2022-12-03T03:50:28.695Z,102295.38
2022-12-03T03:52:57.766Z,102295.84
2022-12-03T03:55:26.056Z,102298.66
2022-12-03T03:57:54.209Z,102284.53
2022-12-03T04:00:23.697Z,102287.84
2022-12-03T04:02:53.006Z,102284.44
2022-12-03T04:05:23.416Z,102288.78
2022-12-03T04:07:52.143Z,102289.41
2022-12-03T04:10:37.670Z,102284.31
2022-12-03T04:13:06.359Z,102282.59
2022-12-03T04:15:35.640Z,102281.69
2022-12-03T04:18:20.893Z,102293.84
2022-12-03T04:20:48.879Z,102290.19
2022-12-03T04:23:15.815Z,102295.56
2022-12-03T04:26:01.102Z,102297.34
2022-12-03T04:28:46.689Z,102299.88
2022-12-03T04:31:38.876Z,102300.03
2022-12-03T04:34:24.422Z,102294.75
2022-12-03T04:36:52.406Z,102298.41
2022-12-03T04:39:20.882Z,102301.75
2022-12-03T04:41:48.870Z,102297.41
2022-12-03T04:44:36.171Z,102300.91
2022-12-03T04:47:08.624Z,102300.06
2022-12-03T04:49:38.213Z,102296.47
2022-12-03T04:52:06.336Z,102298.13
2022-12-03T04:54:34.754Z,102302.59
2022-12-03T04:57:03.336Z,102304.44
2022-12-03T04:59:31.682Z,102298.09
2022-12-03T05:01:59.708Z,102303.34
2022-12-03T05:04:29.280Z,102301.75
2022-12-03T05:06:57.363Z,102312.19
2022-12-03T05:09:25.472Z,102304.13
2022-12-03T05:11:53.396Z,102303.13
2022-12-03T05:14:21.304Z,102300.72
2022-12-03T05:16:49.412Z,102297.19
2022-12-03T05:19:17.367Z,102291.03
2022-12-03T05:21:45.707Z,102283.97
2022-12-03T05:24:13.664Z,102283.94
2022-12-03T05:26:41.641Z,102275.94
2022-12-03T05:29:09.653Z,102284.06
2022-12-03T05:31:37.595Z,102282.38
2022-12-03T05:34:05.973Z,102283.03
2022-12-03T05:36:33.972Z,102279.78
2022-12-03T05:39:03.297Z,102283.19
2022-12-03T05:41:49.048Z,102283.53
2022-12-03T05:44:20.510Z,102285.00
2022-12-03T05:46:48.937Z,102279.03
2022-12-03T05:49:16.916Z,102288.59
2022-12-03T05:51:44.887Z,102281.56
2022-12-03T05:54:14.223Z,102279.69
2022-12-03T05:56:42.341Z,102279.84
2022-12-03T05:59:10.272Z,102273.56
2022-12-03T06:01:38.202Z,102277.84
2022-12-03T06:04:06.620Z,102275.16
2022-12-03T06:06:34.588Z,102272.63
2022-12-03T06:09:02.585Z,102262.81
2022-12-03T06:11:34.147Z,102260.81
2022-12-03T06:14:02.359Z,102260.19
2022-12-03T06:16:30.465Z,102261.81
2022-12-03T06:18:58.825Z,102259.97
2022-12-03T06:21:26.787Z,102256.41
2022-12-03T06:23:54.736Z,102260.25
2022-12-03T06:26:22.762Z,102260.97
2022-12-03T06:28:52.068Z,102254.22
2022-12-03T06:31:20.183Z,102242.63
2022-12-03T06:33:48.289Z,102245.81
2022-12-03T06:36:21.407Z,102251.31
2022-12-03T06:38:50.882Z,102256.59
2022-12-03T06:41:18.820Z,102247.72
2022-12-03T06:43:46.741Z,102246.41
2022-12-03T06:46:16.151Z,102249.44
2022-12-03T06:48:44.175Z,102244.44
2022-12-03T06:51:12.093Z,102246.06
2022-12-03T06:53:40.030Z,102251.66
2022-12-03T06:56:08.441Z,102254.88
2022-12-03T06:58:36.426Z,102247.66
2022-12-03T07:01:04.463Z,102251.88
2022-12-03T07:03:33.851Z,102257.97
2022-12-03T07:06:01.906Z,102263.09
2022-12-03T07:08:29.912Z,102261.19
2022-12-03T07:10:57.906Z,102255.94
2022-12-03T07:13:25.925Z,102263.09
2022-12-03T07:15:53.943Z,102257.91
2022-12-03T07:18:21.931Z,102255.97
2022-12-03T07:20:51.239Z,102258.66
2022-12-03T07:23:19.221Z,102254.19
2022-12-03T07:26:02.938Z,102254.91
2022-12-03T07:28:30.892Z,102252.28
2022-12-03T07:30:58.959Z,102252.41
2022-12-03T07:33:27.066Z,102257.66
2022-12-03T07:35:56.543Z,102261.09
2022-12-03T07:38:24.710Z,102252.53
2022-12-03T07:40:52.718Z,102258.63
2022-12-03T07:43:20.667Z,102247.28
2022-12-03T07:45:49.462Z,102249.66
2022-12-03T07:48:17.457Z,102260.28
2022-12-03T07:50:45.458Z,102253.25
2022-12-03T07:53:14.788Z,102255.03
2022-12-03T07:55:42.775Z,102257.56
2022-12-03T07:58:10.734Z,102258.56
2022-12-03T08:00:38.838Z,102250.00
2022-12-03T08:03:06.835Z,102248.25
2022-12-03T08:05:34.957Z,102253.41
2022-12-03T08:08:02.986Z,102245.56
2022-12-03T08:10:32.431Z,102241.94
2022-12-03T08:13:01.045Z,102240.34
2022-12-03T08:15:36.913Z,102243.78
2022-12-03T08:18:14.444Z,102229.00
2022-12-03T08:20:43.890Z,102242.16
2022-12-03T08:23:15.856Z,102237.78
2022-12-03T08:25:46.620Z,102246.53
2022-12-03T08:28:18.833Z,102237.09
2022-12-03T08:30:59.928Z,102237.72
2022-12-03T08:33:30.044Z,102237.00
2022-12-03T08:35:58.064Z,102237.91
2022-12-03T08:38:26.197Z,102238.78
2022-12-03T08:40:56.324Z,102240.78
2022-12-03T08:43:26.257Z,102227.81
2022-12-03T08:45:55.610Z,102239.31
2022-12-03T08:48:28.240Z,102230.56
2022-12-03T08:50:57.985Z,102230.72
2022-12-03T08:53:34.271Z,102224.44
2022-12-03T08:56:05.963Z,102220.81
2022-12-03T08:58:42.055Z,102216.41
2022-12-03T09:01:31.250Z,102215.84
2022-12-03T09:04:12.061Z,102210.69
2022-12-03T09:06:40.044Z,102218.63
2022-12-03T09:09:07.977Z,102215.06
2022-12-03T09:11:37.492Z,102213.53
2022-12-03T09:14:06.052Z,102208.72
2022-12-03T09:16:34.114Z,102214.28
2022-12-03T09:19:02.396Z,102218.66
2022-12-03T09:21:30.376Z,102219.63
2022-12-03T09:23:58.391Z,102216.25
2022-12-03T09:26:27.205Z,102207.56
2022-12-03T09:28:56.704Z,102207.44
2022-12-03T09:31:24.731Z,102206.75
2022-12-03T09:33:52.779Z,102203.34
2022-12-03T09:36:20.846Z,102215.50
2022-12-03T09:38:48.840Z,102203.50
2022-12-03T09:41:16.959Z,102207.03
2022-12-03T09:46:36.695Z,102205.06
2022-12-03T09:49:10.941Z,102206.16
2022-12-03T09:51:45.022Z,102192.06
2022-12-03T09:54:23.796Z,102196.78
2022-12-03T09:56:52.278Z,102197.69
2022-12-03T09:59:20.752Z,102193.19
2022-12-03T10:01:50.620Z,102196.06
2022-12-03T10:04:18.999Z,102193.56
2022-12-03T10:06:47.212Z,102190.44
2022-12-03T10:09:20.786Z,102191.63
2022-12-03T10:11:48.973Z,102182.69
2022-12-03T10:14:20.182Z,102179.31
2022-12-03T10:16:48.365Z,102175.94
2022-12-03T10:19:24.402Z,102180.28
2022-12-03T10:21:52.846Z,102173.47
2022-12-03T10:24:28.633Z,102177.75
2022-12-03T10:26:58.876Z,102178.84
2022-12-03T10:29:33.507Z,102177.94
2022-12-03T10:32:03.413Z,102179.09
2022-12-03T10:34:35.002Z,102175.50
2022-12-03T10:37:17.868Z,102170.31
2022-12-03T10:40:00.798Z,102161.25
2022-12-03T10:42:30.711Z,102162.22
2022-12-03T10:45:15.626Z,102159.50
2022-12-03T10:47:44.907Z,102156.97
2022-12-03T10:50:20.410Z,102163.94
2022-12-03T10:52:48.682Z,102163.69
2022-12-03T10:55:17.410Z,102164.41
2022-12-03T10:57:47.005Z,102151.41
2022-12-03T11:00:19.778Z,102150.34
2022-12-03T11:02:56.185Z,102147.34
2022-12-03T11:05:28.000Z,102152.59
2022-12-03T11:07:56.904Z,102146.63
2022-12-03T11:10:25.479Z,102147.53
2022-12-03T11:13:28.828Z,102139.84
2022-12-03T11:15:58.026Z,102139.97
2022-12-03T11:19:01.226Z,102140.06
2022-12-03T11:21:31.336Z,102138.19
2022-12-03T11:24:16.219Z,102135.69
2022-12-03T11:27:27.023Z,102132.16
2022-12-03T11:30:00.892Z,102127.81
2022-12-03T11:33:06.243Z,102119.56
2022-12-03T11:36:15.336Z,102127.78
2022-12-03T11:38:53.617Z,102122.00
2022-12-03T11:41:27.710Z,102104.34
2022-12-03T11:44:30.188Z,102112.94
2022-12-03T11:47:00.612Z,102103.25
2022-12-03T11:49:41.112Z,102108.91
2022-12-03T11:52:24.915Z,102080.25
2022-12-03T11:54:59.348Z,102100.47
2022-12-03T11:57:31.592Z,102100.00
2022-12-03T12:00:02.424Z,102099.13
2022-12-03T12:02:30.369Z,102100.06
2022-12-03T12:04:58.430Z,102091.19
2022-12-03T12:07:35.613Z,102089.22
2022-12-03T12:10:05.566Z,102085.69
2022-12-03T12:12:39.723Z,102082.53
2022-12-03T12:15:43.295Z,102080.91
2022-12-03T12:18:37.459Z,102070.66
2022-12-03T12:21:40.312Z,102068.78
2022-12-03T12:24:36.016Z,102075.09
2022-12-03T12:27:07.779Z,102065.13
2022-12-03T12:29:36.460Z,102065.00
2022-12-03T12:32:15.043Z,102051.50
2022-12-03T12:34:45.097Z,102056.03
2022-12-03T12:37:14.270Z,102053.28
2022-12-03T12:39:42.467Z,102041.09
2022-12-03T12:42:29.790Z,102049.91
2022-12-03T12:45:02.316Z,102043.75
2022-12-03T12:47:32.011Z,102033.31
2022-12-03T12:50:00.346Z,102036.75
2022-12-03T12:52:28.654Z,102032.94
2022-12-03T12:55:00.222Z,102029.50
2022-12-03T12:57:34.813Z,102031.44
2022-12-03T13:00:05.771Z,102013.75
2022-12-03T13:02:45.813Z,102018.75
2022-12-03T13:05:14.683Z,102012.31
2022-12-03T13:07:44.068Z,102021.97
2022-12-03T13:10:28.524Z,102019.09
2022-12-03T13:12:58.581Z,102011.16
2022-12-03T13:15:39.837Z,102018.44
2022-12-03T13:18:28.519Z,102003.03
2022-12-03T13:20:56.904Z,102003.50
2022-12-03T13:23:31.666Z,101997.00
2022-12-03T13:26:16.207Z,102001.13
2022-12-03T13:28:52.698Z,101996.00
2022-12-03T13:31:26.650Z,101990.66
2022-12-03T13:33:55.799Z,101996.41
2022-12-03T13:36:28.979Z,101997.81
2022-12-03T13:38:56.994Z,102001.72
2022-12-03T13:41:42.330Z,101999.75
2022-12-03T13:44:20.927Z,102007.69
2022-12-03T13:46:49.042Z,102000.38
2022-12-03T13:49:21.419Z,101999.59
2022-12-03T13:51:50.248Z,102005.63
2022-12-03T13:54:22.205Z,101999.66
2022-12-03T13:56:51.045Z,102003.28
2022-12-03T13:59:25.771Z,102005.38
2022-12-03T14:01:54.464Z,101997.41
2022-12-03T14:04:22.655Z,101991.50
2022-12-03T14:06:50.686Z,101995.28
2022-12-03T14:09:18.617Z,101997.91
2022-12-03T14:12:03.934Z,102000.00
2022-12-03T14:14:33.231Z,102000.66
2022-12-03T14:17:01.323Z,101998.19
2022-12-03T14:19:29.315Z,101989.81
2022-12-03T14:21:57.269Z,101985.88
2022-12-03T14:24:25.310Z,101989.38
2022-12-03T14:26:53.445Z,101988.66
2022-12-03T14:29:21.486Z,101984.59
2022-12-03T14:31:50.890Z,101984.00
2022-12-03T14:34:18.920Z,101988.41
2022-12-03T14:36:46.873Z,101981.63
2022-12-03T14:39:14.796Z,101986.88
2022-12-03T14:42:00.106Z,101986.31
2022-12-03T14:44:28.032Z,101983.56
2022-12-03T14:46:57.734Z,101977.25
2022-12-03T14:49:26.271Z,101978.81
2022-12-03T14:51:54.415Z,101982.28
2022-12-03T14:54:22.890Z,101982.56
2022-12-03T14:56:51.006Z,101984.09
2022-12-03T14:59:24.401Z,101976.34
2022-12-03T15:01:56.897Z,101986.13
2022-12-03T15:04:24.906Z,101982.06
2022-12-03T15:06:52.895Z,101983.91
2022-12-03T15:09:21.133Z,101977.69
2022-12-03T15:11:49.079Z,101966.50
2022-12-03T15:14:17.073Z,101977.13
2022-12-03T15:16:45.220Z,101967.66
2022-12-03T15:19:14.582Z,101974.09
2022-12-03T15:21:42.564Z,101973.69
2022-12-03T15:24:10.769Z,101978.16
2022-12-03T15:26:38.722Z,101974.78
2022-12-03T15:29:06.742Z,101973.06
2022-12-03T15:31:34.900Z,101975.38
2022-12-03T15:34:02.925Z,101977.41
2022-12-03T15:36:32.304Z,101975.38
2022-12-03T15:39:00.283Z,101970.03
2022-12-03T15:41:29.929Z,101972.00
2022-12-03T15:43:59.458Z,101976.16
2022-12-03T15:46:28.308Z,101966.25
2022-12-03T15:48:56.821Z,101957.72
2022-12-03T15:51:25.052Z,101955.63
2022-12-03T15:53:54.377Z,101956.34
2022-12-03T15:56:22.403Z,101944.47
2022-12-03T15:58:50.437Z,101950.19
2022-12-03T16:01:18.666Z,101951.25
2022-12-03T16:03:46.684Z,101948.50
2022-12-03T16:06:14.856Z,101955.81
2022-12-03T16:08:42.860Z,101960.53
2022-12-03T16:11:12.156Z,101953.94
2022-12-03T16:13:40.129Z,101951.06
2022-12-03T16:16:08.477Z,101955.53
2022-12-03T16:18:36.510Z,101953.56
2022-12-03T16:21:04.633Z,101946.81
2022-12-03T16:23:32.619Z,101950.63
2022-12-03T16:26:00.600Z,101941.97
2022-12-03T16:28:29.950Z,101941.88
2022-12-03T16:30:58.062Z,101944.06
2022-12-03T16:33:28.170Z,101938.66
2022-12-03T16:35:56.270Z,101950.34
2022-12-03T16:38:24.369Z,101945.88
2022-12-03T16:40:52.286Z,101951.13
2022-12-03T16:43:20.344Z,101948.31
2022-12-03T16:46:02.529Z,101951.09
2022-12-03T16:48:30.919Z,101949.84
2022-12-03T16:50:58.885Z,101947.78
2022-12-03T16:53:26.856Z,101952.13
2022-12-03T16:55:54.811Z,101954.41
2022-12-03T16:58:22.847Z,101955.38
2022-12-03T17:00:54.153Z,101950.69
2022-12-03T17:03:22.767Z,101951.09
2022-12-03T17:05:50.989Z,101955.28
2022-12-03T17:08:18.995Z,101944.78
2022-12-03T17:10:47.198Z,101948.75
2022-12-03T17:13:15.203Z,101948.78
2022-12-03T17:15:43.249Z,101939.28
2022-12-03T17:18:12.763Z,101944.00
2022-12-03T17:20:40.706Z,101935.88
2022-12-03T17:23:08.774Z,101932.75
2022-12-03T17:25:36.810Z,101929.78
2022-12-03T17:28:04.921Z,101940.09
2022-12-03T17:30:32.889Z,101928.13
2022-12-03T17:33:00.856Z,101929.72
2022-12-03T17:35:30.220Z,101930.81
2022-12-03T17:37:58.176Z,101929.41
2022-12-03T17:40:26.132Z,101925.09
2022-12-03T17:42:54.187Z,101927.25
2022-12-03T17:45:22.193Z,101933.84
2022-12-03T17:47:50.091Z,101927.00
2022-12-03T17:50:18.140Z,101926.13
2022-12-03T17:52:47.519Z,101917.38
2022-12-03T17:55:23.926Z,101915.25
2022-12-03T17:57:56.171Z,101916.56
2022-12-03T18:00:24.576Z,101924.25
2022-12-03T18:02:52.556Z,101915.22
2022-12-03T18:05:20.790Z,101917.31
2022-12-03T18:07:50.177Z,101917.97
2022-12-03T18:10:18.380Z,101916.38
2022-12-03T18:12:46.457Z,101927.25
2022-12-03T18:15:14.390Z,101920.84
2022-12-03T18:17:42.356Z,101917.44
2022-12-03T18:20:10.731Z,101919.53
2022-12-03T18:22:38.941Z,101915.78
2022-12-03T18:25:09.393Z,101920.19
2022-12-03T18:27:37.478Z,101917.06
2022-12-03T18:30:06.497Z,101914.63
2022-12-03T18:32:34.456Z,101925.03
2022-12-03T18:35:02.383Z,101927.53
2022-12-03T18:37:31.231Z,101915.50
2022-12-03T18:39:59.959Z,101922.13
2022-12-03T18:42:29.303Z,101926.97
2022-12-03T18:44:58.293Z,101930.91
2022-12-03T18:47:28.995Z,101928.06
2022-12-03T18:49:57.782Z,101916.34
2022-12-03T18:52:26.089Z,101923.06
2022-12-03T18:54:55.191Z,101923.63
2022-12-03T18:57:23.179Z,101918.28
2022-12-03T18:59:52.829Z,101921.69
2022-12-03T19:05:11.006Z,101927.94
2022-12-03T19:07:39.105Z,101925.38
2022-12-03T19:10:08.767Z,101923.63
2022-12-03T19:12:36.952Z,101923.63
2022-12-03T19:15:07.836Z,101927.25
2022-12-03T19:17:35.876Z,101930.59
2022-12-03T19:20:05.245Z,101926.06
2022-12-03T19:22:33.239Z,101922.59
2022-12-03T19:25:01.172Z,101925.84
2022-12-03T19:27:31.052Z,101924.75
2022-12-03T19:29:59.579Z,101927.22
2022-12-03T19:32:28.955Z,101927.22
2022-12-03T19:34:56.908Z,101928.94
2022-12-03T19:37:24.904Z,101930.66
2022-12-03T19:39:54.553Z,101928.19
2022-12-03T19:42:22.795Z,101936.97
2022-12-03T19:44:50.762Z,101932.41
2022-12-03T19:47:18.711Z,101928.91
2022-12-03T19:49:48.127Z,101930.41
2022-12-03T19:52:16.094Z,101935.56
2022-12-03T19:54:44.255Z,101927.69
2022-12-03T19:57:12.183Z,101933.78
2022-12-03T19:59:40.142Z,101937.31
2022-12-03T20:02:08.267Z,101935.66
2022-12-03T20:04:36.454Z,101929.44
2022-12-03T20:07:06.695Z,101934.69
2022-12-03T20:09:34.669Z,101934.66
2022-12-03T20:12:02.703Z,101942.63
2022-12-03T20:14:30.882Z,101936.44
2022-12-03T20:16:58.894Z,101938.94
2022-12-03T20:19:26.939Z,101945.88
2022-12-03T20:22:00.790Z,101942.25
2022-12-03T20:24:31.839Z,101942.38
2022-12-03T20:26:59.805Z,101935.94
2022-12-03T20:29:27.850Z,101948.25
2022-12-03T20:31:55.848Z,101947.41
2022-12-03T20:34:23.901Z,101948.16
2022-12-03T20:36:51.828Z,101946.31
2022-12-03T20:39:19.801Z,101946.44
2022-12-03T20:41:49.254Z,101945.16
2022-12-03T20:44:17.182Z,101946.16
2022-12-03T20:46:45.284Z,101946.72
2022-12-03T20:49:13.281Z,101951.41
2022-12-03T20:51:42.372Z,101943.34
2022-12-03T20:54:11.020Z,101946.78
2022-12-03T20:56:41.941Z,101945.16
2022-12-03T20:59:14.111Z,101956.34
2022-12-03T21:01:42.922Z,101957.19
2022-12-03T21:04:14.586Z,101954.50
2022-12-03T21:06:43.061Z,101951.88
2022-12-03T21:09:12.022Z,101956.97
2022-12-03T21:11:42.298Z,101951.25
2022-12-03T21:14:12.432Z,101953.78
2022-12-03T21:19:30.344Z,101953.97
2022-12-03T21:21:58.308Z,101955.63
2022-12-03T21:24:26.302Z,101949.56
2022-12-03T21:26:54.318Z,101951.06
2022-12-03T21:29:23.895Z,101945.75
2022-12-03T21:31:52.167Z,101954.50
2022-12-03T21:34:20.305Z,101952.66
2022-12-03T21:36:48.348Z,101950.81
2022-12-03T21:39:16.489Z,101946.81
2022-12-03T21:42:34.100Z,101950.03
2022-12-03T21:44:35.005Z,101954.16
2022-12-03T21:47:12.407Z,101955.16
2022-12-03T21:49:42.443Z,101962.97
2022-12-03T21:52:10.909Z,101960.50
2022-12-03T21:54:38.885Z,101964.00
2022-12-03T21:57:06.836Z,101960.78
2022-12-03T21:59:36.288Z,101962.78
2022-12-03T22:02:04.540Z,101955.56
2022-12-03T22:04:32.642Z,101961.47
2022-12-03T22:07:00.647Z,101958.53
2022-12-03T22:09:28.893Z,101958.31
2022-12-03T22:11:59.229Z,101964.34
2022-12-03T22:14:27.510Z,101961.66
2022-12-03T22:16:56.899Z,101958.13
2022-12-03T22:19:25.279Z,101963.47
2022-12-03T22:21:53.588Z,101961.41
2022-12-03T22:24:21.591Z,101959.72
2022-12-03T22:26:49.610Z,101969.44
2022-12-03T22:29:17.588Z,101955.44
2022-12-03T22:31:45.666Z,101968.69
2022-12-03T22:34:15.020Z,101949.69
2022-12-03T22:36:42.987Z,101961.16
2022-12-03T22:39:10.966Z,101952.25
2022-12-03T22:41:38.947Z,101950.84
2022-12-03T22:44:07.088Z,101948.31
2022-12-03T22:46:35.069Z,101945.69
2022-12-03T22:49:07.052Z,101943.13
2022-12-03T22:51:37.116Z,101948.41
2022-12-03T22:54:05.548Z,101947.69
2022-12-03T22:56:34.041Z,101934.19
2022-12-03T22:59:02.080Z,101948.00
2022-12-03T23:01:31.691Z,101941.75
2022-12-03T23:03:59.975Z,101950.66
2022-12-03T23:06:29.135Z,101945.50
2022-12-03T23:08:59.832Z,101949.94
2022-12-03T23:11:28.538Z,101946.28
2022-12-03T23:13:56.612Z,101937.72
2022-12-03T23:16:27.215Z,101937.56
2022-12-03T23:18:55.554Z,101941.19
2022-12-03T23:21:29.303Z,101943.91
2022-12-03T23:23:59.716Z,101936.03
2022-12-03T23:26:28.607Z,101944.91
2022-12-03T23:28:57.255Z,101943.22
2022-12-03T23:31:27.934Z,101937.06
2022-12-03T23:33:57.676Z,101935.34
2022-12-03T23:36:27.678Z,101931.22
2022-12-03T23:38:56.170Z,101935.50
2022-12-03T23:41:26.495Z,101935.50
2022-12-03T23:43:54.691Z,101938.09
2022-12-03T23:46:24.967Z,101925.59
2022-12-03T23:48:53.384Z,101937.31
2022-12-03T23:51:23.240Z,101933.56
2022-12-03T23:53:52.758Z,101935.47
2022-12-03T23:56:23.299Z,101932.66
2022-12-03T23:58:52.767Z,101929.25
